Flight Track Log - Related Links

Times and Time Zones

All times are in EDT time to prevent confusion due to time zone crossing. See the CHH7104 flight status page for this flight to view local times or setup timezone preferences in your user account.

Time Position Orientation Groundspeed Altitude Reporting Facility
EDT Latitude Longitude Course Direction KTS MPH feet Rate Location/Type
Tue 10:24:00 PM 44.4872 129.4301 250° West  Level Estimated
Tue 10:25:00 PM 44.4502 129.2914 250° West  Level Estimated
Tue 10:26:00 PM 44.4131 129.1528 249° West  Level Estimated
Tue 10:27:00 PM 44.3757 129.0145 249° West  Level Estimated
Tue 10:28:00 PM 44.3382 128.8763 249° West  Level Estimated
Tue 10:29:00 PM 44.3005 128.7383 249° West  Level Estimated
Tue 10:30:00 PM 44.2627 128.6004 249° West  Level Estimated
Tue 10:31:00 PM 44.2247 128.4628 249° West  Level Estimated
Tue 10:32:00 PM 44.1865 128.3253 249° West  Level Estimated
Tue 10:33:00 PM 44.1482 128.1880 249° West  Level Estimated
Tue 10:34:00 PM 44.1097 128.0509 249° West  Level Estimated
Tue 10:35:00 PM 44.0710 127.9139 249° West  Level Estimated
Tue 10:36:00 PM 44.0322 127.7771 248° West  Level Estimated
Tue 10:37:00 PM 43.9932 127.6405 248° West  Level Estimated
Tue 10:38:00 PM 43.9541 127.5041 248° West  Level Estimated
Tue 10:39:00 PM 43.9147 127.3679 248° West  Level Estimated
Tue 10:40:00 PM 43.8753 127.2319 248° West  Level Estimated
Tue 10:41:00 PM 43.8356 127.0960 248° West  Level Estimated
Tue 10:42:00 PM 43.8001 126.9748 248° West  Level Estimated
Tue 10:43:00 PM 43.7645 126.8538 248° West  Level Estimated
Tue 10:44:00 PM 43.7287 126.7329 248° West  Level Estimated
Tue 10:45:00 PM 43.6928 126.6122 248° West  Level Estimated
Tue 10:46:00 PM 43.6567 126.4917 248° West  Level Estimated
Tue 10:47:00 PM 43.6206 126.3712 248° West  Level Estimated
Tue 10:48:00 PM 43.5843 126.2509 247° West  Level Estimated
Tue 10:49:00 PM 43.5479 126.1308 247° West  Level Estimated
Tue 10:50:00 PM 43.5113 126.0108 247° West  Level Estimated
Tue 10:51:00 PM 43.4747 125.8909 247° West  Level Estimated
Tue 10:52:00 PM 43.4379 125.7712 247° West  Level Estimated
Tue 10:53:00 PM 43.4010 125.6517 247° West  Level Estimated
Tue 10:54:00 PM 43.3639 125.5323 247° West  Level Estimated
Tue 10:55:00 PM 43.3268 125.4130 247° West  Level Estimated
Tue 10:56:00 PM 43.2895 125.2939 247° West  Level Estimated
Tue 10:57:00 PM 43.2521 125.1749 247° West  Level Estimated
Tue 10:58:00 PM 43.2145 125.0561 247° West  Level Estimated
Tue 10:59:00 PM 43.1769 124.9374 247° West  Level Estimated
Tue 11:00:00 PM 43.1391 124.8188 246° West  Level Estimated
Tue 11:01:00 PM 43.1012 124.7004 246° West  Level Estimated
Tue 11:02:00 PM 43.0632 124.5822 246° West  Level Estimated
Tue 11:03:00 PM 43.0250 124.4641 246° West  Level Estimated
Tue 11:04:00 PM 42.9868 124.3462 246° West  Level Estimated
Tue 11:05:00 PM 42.9484 124.2284 246° West  Level Estimated
Tue 11:06:00 PM 42.9099 124.1107 246° West  Level Estimated
Tue 11:07:00 PM 42.8712 123.9932 246° West  Level Estimated
Tue 11:08:00 PM 42.8325 123.8758 246° West  Level Estimated
Tue 11:09:00 PM 42.7936 123.7586 246° West  Level Estimated
Tue 11:10:00 PM 42.7546 123.6415 246° West  Level Estimated
Tue 11:11:00 PM 42.7155 123.5246 246° West  Level Estimated
Tue 11:12:00 PM 42.6763 123.4079 245° Southwest  Level Estimated
Tue 11:13:00 PM 42.6370 123.2912 245° Southwest  Level Estimated
Tue 11:14:00 PM 42.5975 123.1748 245° Southwest  Level Estimated
Tue 11:15:00 PM 42.5579 123.0584 245° Southwest  Level Estimated
Tue 11:16:00 PM 42.5182 122.9423 245° Southwest  Level Estimated
Tue 11:17:00 PM 42.4784 122.8262 245° Southwest  Level Estimated
Tue 11:18:00 PM 42.4385 122.7103 245° Southwest  Level Estimated
Tue 11:19:00 PM 42.3984 122.5946 245° Southwest  Level Estimated
Tue 11:20:00 PM 42.3583 122.4790 245° Southwest  Level Estimated
Tue 11:21:00 PM 42.3180 122.3636 245° Southwest  Level Estimated
Tue 11:22:00 PM 42.2776 122.2483 245° Southwest  Level Estimated
Tue 11:23:00 PM 42.2371 122.1331 245° Southwest  Level Estimated
Tue 11:24:00 PM 42.1964 122.0181 245° Southwest  Level Estimated
Tue 11:25:00 PM 42.1557 121.9033 244° Southwest  Level Estimated
Tue 11:26:00 PM 42.1149 121.7886 244° Southwest  Level Estimated
Tue 11:27:00 PM 42.0739 121.6740 244° Southwest  Level Estimated
Tue 11:28:00 PM 42.0328 121.5596 244° Southwest  Level Estimated
Tue 11:29:00 PM 41.9916 121.4453 244° Southwest  Level Estimated
Tue 11:30:00 PM 41.9503 121.3312 244° Southwest  Level Estimated
Tue 11:31:00 PM 41.9089 121.2173 244° Southwest  Level Estimated
Tue 11:32:00 PM 41.8674 121.1034 244° Southwest  Level Estimated
Tue 11:33:00 PM 41.8257 120.9898 244° Southwest  Level Estimated
Tue 11:34:00 PM 41.7839 120.8763 244° Southwest  Level Estimated
Tue 11:35:00 PM 41.7421 120.7629 244° Southwest  Level Estimated
Tue 11:36:00 PM 41.7001 120.6497 244° Southwest  Level Estimated
Tue 11:37:00 PM 41.6580 120.5366 244° Southwest  Level Estimated
Tue 11:38:00 PM 41.6158 120.4237 243° Southwest  Level Estimated
Tue 11:39:00 PM 41.5735 120.3109 243° Southwest  Level Estimated
Tue 11:40:00 PM 41.5311 120.1982 243° Southwest  Level Estimated
Tue 11:41:00 PM 41.4885 120.0858 243° Southwest  Level Estimated
Tue 11:42:00 PM 41.4459 119.9734 243° Southwest  Level Estimated
Tue 11:43:00 PM 41.4031 119.8612 243° Southwest  Level Estimated
Tue 11:44:00 PM 41.3603 119.7492 243° Southwest  Level Estimated
Tue 11:45:00 PM 41.3173 119.6373 243° Southwest  Level Estimated
Tue 11:46:00 PM 41.2742 119.5256 243° Southwest  Level Estimated
Tue 11:47:00 PM 41.2310 119.4140 243° Southwest  Level Estimated
Tue 11:48:00 PM 41.1878 119.3025 243° Southwest  Level Estimated
Tue 11:49:00 PM 41.1444 119.1912 243° Southwest  Level Estimated
Tue 11:50:00 PM 41.1008 119.0800 243° Southwest  Level Estimated
Tue 11:51:00 PM 41.0572 118.9690 243° Southwest  Level Estimated
Tue 11:52:00 PM 41.0135 118.8582 242° Southwest  Level Estimated
Tue 11:53:00 PM 40.9697 118.7475 242° Southwest  Level Estimated
Tue 11:54:00 PM 40.9258 118.6369 242° Southwest  Level Estimated
Tue 11:55:00 PM 40.8817 118.5265 242° Southwest  Level Estimated
Tue 11:56:00 PM 40.8376 118.4162 242° Southwest  Level Estimated
Tue 11:57:00 PM 40.7933 118.3061 242° Southwest  Level Estimated
Tue 11:58:00 PM 40.7490 118.1961 242° Southwest  Level Estimated
Tue 11:59:00 PM 40.7045 118.0863 242° Southwest  Level Estimated
Wed 12:00:00 AM 40.6600 117.9766 242° Southwest  Level Estimated
Wed 12:01:00 AM 40.6153 117.8671 242° Southwest  Level Estimated
Wed 12:02:00 AM 40.5705 117.7577 242° Southwest  Level Estimated
Wed 12:03:00 AM 40.5257 117.6484 242° Southwest  Level Estimated
Wed 12:04:00 AM 40.4807 117.5393 242° Southwest  Level Estimated
Wed 12:05:00 AM 40.4356 117.4304 242° Southwest  Level Estimated
Wed 12:06:00 AM 40.3904 117.3216 241° Southwest  Level Estimated
Wed 12:07:00 AM 40.3451 117.2129 241° Southwest  Level Estimated
Wed 12:08:00 AM 40.2998 117.1044 241° Southwest  Level Estimated
Wed 12:09:00 AM 40.2543 116.9960 241° Southwest  Level Estimated
Wed 12:10:00 AM 40.2087 116.8878 241° Southwest  Level Estimated
Wed 12:11:00 AM 40.1630 116.7797 241° Southwest  Level Estimated
Wed 12:12:00 AM 40.1172 116.6718 241° Southwest  Level Estimated
Wed 12:13:00 AM 40.0801 116.5846 241° Southwest  Level Estimated
Wed 12:14:00 AM 40.0801 116.5846 288° West  Level Estimated
Wed 12:15:00 AM 40.0801 116.5846 288° West  Level Estimated
Wed 12:16:00 AM 40.0801 116.5846 288° West  Level Estimated
Wed 12:17:00 AM 40.0801 116.5846 288° West  Level Estimated
Wed 12:18:00 AM 40.0801 116.5846 288° West  Level Estimated
Wed 12:18:27 AM 39.8160 116.7700 288° West 197 227 7,100  Level FlightAware ADS-B
Wed 12:18:52 AM 39.7940 116.7730 174° South 198 228 7,100 -267 Level FlightAware ADS-B
Wed 12:19:00 AM 40.0801 116.5846 288° West  Level Estimated
Wed 12:19:12 AM 39.7770 116.7760 172° South 198 228 6,900  Level FlightAware ADS-B
Wed 12:19:49 AM 39.7450 116.7820 172° South 198 228 6,700 -800 Descending FlightAware ADS-B
Wed 12:20:12 AM 39.7210 116.7850 175° South 196 226 6,100 -947 Descending FlightAware ADS-B
Wed 12:20:27 AM 39.7080 116.7870 173° South 191 220 6,100 -219 Level FlightAware ADS-B
Wed 12:23:00 AM 39.9301 116.6665 337° Northwest  Level Estimated
Wed 12:24:00 AM 40.0172 116.6190 337° Northwest  Level Estimated
Wed 12:25:00 AM 40.0801 116.5846 337° Northwest  Level Estimated
Wed 12:26:00 AM 40.0801 116.5846 288° West  Level Estimated
Wed 12:27:00 AM 40.0801 116.5846 288° West  Level Estimated
Wed 12:27:57 AM 39.8360 116.6520 288° West 203 234 4,400  Level FlightAware ADS-B
Wed 12:28:00 AM 40.0801 116.5846 288° West  Level Estimated
Wed 12:28:27 AM 39.8640 116.6480 354° North 196 226 4,000  Level FlightAware ADS-B
Wed 12:28:42 AM 39.8740 116.6460 351° North 196 226 3,800 -1,067 Descending FlightAware ADS-B
Wed 12:29:12 AM 39.9040 116.6420 354° North 202 232 3,200 -618 Descending FlightAware ADS-B
Wed 12:29:50 AM 39.9330 116.6370 352° North 203 234 3,100 -914 Descending FlightAware ADS-B
Wed 12:30:57 AM 39.9920 116.6280 353° North 162 186 1,600 -978 Descending FlightAware ADS-B
Wed 12:31:22 AM 40.0080 116.6260 355° North 162 186 1,600  Level FlightAware ADS-B
Wed 12:34:00 AM 40.0801 116.5846 336° Northwest  Level Estimated

Login

Don't have an account? Register now (free) for customized features, flight alerts, and more!